createdAt,value
2023-02-08T00:00:52.235Z,19.75
2023-02-08T00:01:57.543Z,19.77
2023-02-08T00:03:01.875Z,21.95
2023-02-08T00:04:12.401Z,21.65
2023-02-08T00:05:20.490Z,20.73
2023-02-08T00:06:25.714Z,20.98
2023-02-08T00:07:30.332Z,18.67
2023-02-08T00:08:42.607Z,20.40
2023-02-08T00:09:46.793Z,17.92
2023-02-08T00:10:53.395Z,19.13
2023-02-08T00:11:58.674Z,20.92
2023-02-08T00:13:04.336Z,17.58
2023-02-08T00:14:15.641Z,17.77
2023-02-08T00:15:21.008Z,19.47
2023-02-08T00:16:28.440Z,17.40
2023-02-08T00:17:33.122Z,19.42
2023-02-08T00:18:38.436Z,19.08
2023-02-08T00:19:42.889Z,19.48
2023-02-08T00:20:50.602Z,17.90
2023-02-08T00:21:57.567Z,15.68
2023-02-08T00:23:04.128Z,18.20
2023-02-08T00:24:20.981Z,19.38
2023-02-08T00:25:30.328Z,17.60
2023-02-08T00:26:35.090Z,19.65
2023-02-08T00:27:47.829Z,17.95
2023-02-08T00:28:52.357Z,19.52
2023-02-08T00:30:00.613Z,16.52
2023-02-08T00:31:08.318Z,17.08
2023-02-08T00:32:15.711Z,19.88
2023-02-08T00:33:20.133Z,19.00
2023-02-08T00:34:24.927Z,16.98
2023-02-08T00:35:32.052Z,16.70
2023-02-08T00:36:37.638Z,17.42
2023-02-08T00:37:44.533Z,17.33
2023-02-08T00:38:53.159Z,17.65
2023-02-08T00:41:39.993Z,15.25
2023-02-08T00:43:03.080Z,18.52
2023-02-08T00:44:11.330Z,18.67
2023-02-08T00:45:25.502Z,20.58
2023-02-08T00:46:31.232Z,17.92
2023-02-08T00:47:45.896Z,19.00
2023-02-08T00:49:24.983Z,16.77
2023-02-08T00:50:42.459Z,17.85
2023-02-08T00:51:50.910Z,20.50
2023-02-08T00:52:55.903Z,19.55
2023-02-08T00:54:00.685Z,17.13
2023-02-08T00:55:12.217Z,17.73
2023-02-08T00:56:18.777Z,19.70
2023-02-08T00:57:23.326Z,19.45
2023-02-08T00:58:36.121Z,18.30
2023-02-08T00:59:42.362Z,20.92
2023-02-08T01:00:47.027Z,19.25
2023-02-08T01:01:51.811Z,17.90
2023-02-08T01:02:58.010Z,20.20
2023-02-08T01:04:04.377Z,19.42
2023-02-08T01:05:21.070Z,17.88
2023-02-08T01:06:25.319Z,18.63
2023-02-08T01:07:31.014Z,20.30
2023-02-08T01:08:36.084Z,17.63
2023-02-08T01:09:40.328Z,21.20
2023-02-08T01:10:45.416Z,16.75
2023-02-08T01:11:50.022Z,20.33
2023-02-08T01:12:55.710Z,18.88
2023-02-08T01:14:00.896Z,19.05
2023-02-08T01:15:09.902Z,18.67
2023-02-08T01:16:23.149Z,20.15
2023-02-08T01:17:27.903Z,17.60
2023-02-08T01:18:32.678Z,20.20
2023-02-08T01:19:36.920Z,20.73
2023-02-08T01:20:42.673Z,18.95
2023-02-08T01:21:49.256Z,20.98
2023-02-08T01:22:53.691Z,18.95
2023-02-08T01:24:00.250Z,18.92
2023-02-08T01:25:12.424Z,18.75
2023-02-08T01:26:20.780Z,15.80
2023-02-08T01:27:25.212Z,21.02
2023-02-08T01:28:30.747Z,17.45
2023-02-08T01:29:34.862Z,16.55
2023-02-08T01:30:42.680Z,18.95
2023-02-08T01:31:48.042Z,19.85
2023-02-08T01:32:53.429Z,17.05
2023-02-08T01:34:17.531Z,18.10
2023-02-08T01:35:23.166Z,17.75
2023-02-08T01:36:31.481Z,18.30
2023-02-08T01:37:36.373Z,18.27
2023-02-08T01:38:45.510Z,17.05
2023-02-08T01:39:50.836Z,17.77
2023-02-08T01:40:56.482Z,17.70
2023-02-08T01:42:03.340Z,18.83
2023-02-08T01:43:36.631Z,17.60
2023-02-08T01:45:24.556Z,17.25
2023-02-08T01:46:33.371Z,15.55
2023-02-08T01:47:39.298Z,16.55
2023-02-08T01:48:45.375Z,16.58
2023-02-08T01:49:54.183Z,16.85
2023-02-08T01:51:23.978Z,16.90
2023-02-08T01:52:34.040Z,16.30
2023-02-08T01:53:41.091Z,19.38
2023-02-08T01:55:05.425Z,18.92
2023-02-08T01:58:47.912Z,18.67
2023-02-08T02:00:34.957Z,20.13
2023-02-08T02:01:48.936Z,15.50
2023-02-08T02:03:17.523Z,16.00
2023-02-08T02:04:32.948Z,16.20
2023-02-08T02:06:18.986Z,16.40
2023-02-08T02:07:33.801Z,18.63
2023-02-08T02:08:46.291Z,17.50
2023-02-08T02:11:15.795Z,15.65
2023-02-08T02:12:33.969Z,10.77
2023-02-08T02:13:47.881Z,15.45
2023-02-08T02:15:03.765Z,14.20
2023-02-08T02:16:31.286Z,12.07
2023-02-08T02:17:41.670Z,13.65
2023-02-08T02:19:00.131Z,11.02
2023-02-08T02:20:49.033Z,12.82
2023-02-08T02:22:36.192Z,9.32
2023-02-08T02:25:18.853Z,10.63
2023-02-08T02:27:11.870Z,9.20
2023-02-08T02:29:20.541Z,11.27
2023-02-08T02:31:16.606Z,12.95
2023-02-08T02:33:02.790Z,11.45
2023-02-08T02:35:13.727Z,11.68
2023-02-08T02:36:54.399Z,11.00
2023-02-08T02:38:42.328Z,12.55
2023-02-08T02:41:04.101Z,9.27
2023-02-08T02:43:02.449Z,11.75
2023-02-08T02:44:50.767Z,12.02
2023-02-08T02:46:25.042Z,12.27
2023-02-08T02:48:57.347Z,11.43
2023-02-08T02:50:45.788Z,12.77
2023-02-08T02:52:36.043Z,11.65
2023-02-08T02:54:48.001Z,12.82
2023-02-08T02:56:34.936Z,13.10
2023-02-08T02:58:01.437Z,13.30
2023-02-08T02:59:20.975Z,12.30
2023-02-08T03:00:35.954Z,11.90
2023-02-08T03:01:51.104Z,11.90
2023-02-08T03:03:03.343Z,11.75
2023-02-08T03:04:56.935Z,12.55
2023-02-08T03:06:22.178Z,11.65
2023-02-08T03:07:51.157Z,11.85
2023-02-08T03:09:43.998Z,11.68
2023-02-08T03:11:29.031Z,10.85
2023-02-08T03:13:17.953Z,10.00
2023-02-08T03:14:49.712Z,10.07
2023-02-08T03:16:24.620Z,9.90
2023-02-08T03:18:28.229Z,8.73
2023-02-08T03:20:14.277Z,7.40
2023-02-08T03:22:14.594Z,10.68
2023-02-08T03:23:39.731Z,8.35
2023-02-08T03:27:18.572Z,9.38
2023-02-08T03:28:30.917Z,8.90
2023-02-08T03:30:15.903Z,9.80
2023-02-08T03:31:56.913Z,12.48
2023-02-08T03:33:26.071Z,10.98
2023-02-08T03:34:54.537Z,10.63
2023-02-08T03:37:41.915Z,10.68
2023-02-08T03:38:58.210Z,9.63
2023-02-08T03:40:35.811Z,12.30
2023-02-08T03:41:46.068Z,12.68
2023-02-08T03:42:54.835Z,10.18
2023-02-08T03:44:11.477Z,12.07
2023-02-08T03:45:37.016Z,10.85
2023-02-08T03:47:14.087Z,12.00
2023-02-08T03:48:23.915Z,12.95
2023-02-08T03:49:37.015Z,12.85
2023-02-08T03:52:13.107Z,14.23
2023-02-08T03:53:23.559Z,12.43
2023-02-08T03:54:35.983Z,15.48
2023-02-08T03:55:44.214Z,16.50
2023-02-08T03:57:11.276Z,14.32
2023-02-08T03:58:56.220Z,14.68
2023-02-08T04:00:17.645Z,13.10
2023-02-08T04:01:37.080Z,14.82
2023-02-08T04:03:21.983Z,14.55
2023-02-08T04:04:32.246Z,16.10
2023-02-08T04:05:38.207Z,12.00
2023-02-08T04:06:46.966Z,12.45
2023-02-08T04:07:52.664Z,14.45
2023-02-08T04:08:57.673Z,13.35
2023-02-08T04:10:09.904Z,15.68
2023-02-08T04:11:14.952Z,14.80
2023-02-08T04:12:21.155Z,15.02
2023-02-08T04:13:26.101Z,15.02
2023-02-08T04:14:30.647Z,15.60
2023-02-08T04:15:34.831Z,13.98
2023-02-08T04:16:39.506Z,13.00
2023-02-08T04:17:44.772Z,14.57
2023-02-08T04:18:49.277Z,13.35
2023-02-08T04:19:57.333Z,14.07
2023-02-08T04:21:03.451Z,13.98
2023-02-08T04:22:18.755Z,13.82
2023-02-08T04:23:26.070Z,12.93
2023-02-08T04:24:38.614Z,13.55
2023-02-08T04:26:22.218Z,13.65
2023-02-08T04:27:37.873Z,14.05
2023-02-08T04:28:44.098Z,13.07
2023-02-08T04:30:29.231Z,12.35
2023-02-08T04:31:42.653Z,12.27
2023-02-08T04:33:06.678Z,14.48
2023-02-08T04:34:25.756Z,13.68
2023-02-08T04:35:31.958Z,11.98
2023-02-08T04:36:58.455Z,11.18
2023-02-08T04:38:22.603Z,12.68
2023-02-08T04:39:30.828Z,9.55
2023-02-08T04:40:47.967Z,10.45
2023-02-08T04:41:53.982Z,10.27
2023-02-08T04:44:27.549Z,11.20
2023-02-08T04:45:34.193Z,11.07
2023-02-08T04:46:44.021Z,10.15
2023-02-08T04:47:53.395Z,9.60
2023-02-08T04:49:01.158Z,10.65
2023-02-08T04:50:19.765Z,9.63
2023-02-08T04:51:30.118Z,9.70
2023-02-08T04:52:34.643Z,8.82
2023-02-08T04:53:52.364Z,9.60
2023-02-08T04:56:19.745Z,11.43
2023-02-08T04:57:29.583Z,9.85
2023-02-08T04:58:37.470Z,11.07
2023-02-08T04:59:46.360Z,11.65
2023-02-08T05:00:55.633Z,9.32
2023-02-08T05:02:00.718Z,10.65
2023-02-08T05:03:10.285Z,10.98
2023-02-08T05:04:14.910Z,12.55
2023-02-08T05:05:22.194Z,11.25
2023-02-08T05:06:30.766Z,11.98
2023-02-08T05:07:38.472Z,9.88
2023-02-08T05:08:43.107Z,10.70
2023-02-08T05:09:48.121Z,13.80
2023-02-08T05:10:58.150Z,11.63
2023-02-08T05:12:17.302Z,10.07
2023-02-08T05:13:24.950Z,12.00
2023-02-08T05:14:49.212Z,12.15
2023-02-08T05:16:02.182Z,15.57
2023-02-08T05:17:16.834Z,13.35
2023-02-08T05:18:28.979Z,13.13
2023-02-08T05:19:37.299Z,11.95
2023-02-08T05:20:48.697Z,11.90
2023-02-08T05:21:53.902Z,12.27
2023-02-08T05:23:02.826Z,11.25
2023-02-08T05:24:26.564Z,12.10
2023-02-08T05:25:31.999Z,8.20
2023-02-08T05:26:44.425Z,10.38
2023-02-08T05:27:50.647Z,11.13
2023-02-08T05:29:27.675Z,10.30
2023-02-08T05:30:41.557Z,11.07
2023-02-08T05:31:53.056Z,9.98
2023-02-08T05:33:01.089Z,9.90
2023-02-08T05:34:16.668Z,11.63
2023-02-08T05:35:22.656Z,9.48
2023-02-08T05:36:30.946Z,10.43
2023-02-08T05:37:36.825Z,12.40
2023-02-08T05:38:55.446Z,11.73
2023-02-08T05:40:00.064Z,11.68
2023-02-08T05:41:06.253Z,12.80
2023-02-08T05:42:13.723Z,11.43
2023-02-08T05:43:18.078Z,12.18
2023-02-08T05:44:22.338Z,12.35
2023-02-08T05:45:30.323Z,12.13
2023-02-08T05:46:36.479Z,12.98
2023-02-08T05:47:42.713Z,11.98
2023-02-08T05:48:47.472Z,12.18
2023-02-08T05:49:51.723Z,11.23
2023-02-08T05:50:55.634Z,11.90
2023-02-08T05:52:16.164Z,12.63
2023-02-08T05:53:21.788Z,11.20
2023-02-08T05:54:35.730Z,10.50
2023-02-08T05:55:50.838Z,15.07
2023-02-08T05:57:05.288Z,11.43
2023-02-08T05:58:19.769Z,13.77
2023-02-08T05:59:27.315Z,11.77
2023-02-08T06:00:34.350Z,11.77
2023-02-08T06:01:56.107Z,11.95
2023-02-08T06:03:32.866Z,14.63
2023-02-08T06:04:47.336Z,14.05
2023-02-08T06:06:08.895Z,12.93
2023-02-08T06:09:37.070Z,11.75
2023-02-08T06:10:50.535Z,14.90
2023-02-08T06:11:54.636Z,14.32
2023-02-08T06:13:17.577Z,12.13
2023-02-08T06:14:30.847Z,12.20
2023-02-08T06:15:40.699Z,13.27
2023-02-08T06:16:48.286Z,13.15
2023-02-08T06:17:59.162Z,11.02
2023-02-08T06:19:05.056Z,12.55
2023-02-08T06:20:26.999Z,13.55
2023-02-08T06:21:43.994Z,14.88
2023-02-08T06:22:58.183Z,12.75
2023-02-08T06:24:05.911Z,12.27
2023-02-08T06:25:22.724Z,13.32
2023-02-08T06:26:41.074Z,12.50
2023-02-08T06:27:59.818Z,13.43
2023-02-08T06:29:19.067Z,13.38
2023-02-08T06:30:28.587Z,10.00
2023-02-08T06:31:41.528Z,12.00
2023-02-08T06:33:02.263Z,13.20
2023-02-08T06:34:20.871Z,11.63
2023-02-08T06:35:25.320Z,11.27
2023-02-08T06:36:54.253Z,10.20
2023-02-08T06:38:14.421Z,13.45
2023-02-08T06:39:34.047Z,13.75
2023-02-08T06:40:45.485Z,12.50
2023-02-08T06:41:54.792Z,11.70
2023-02-08T06:44:51.366Z,13.13
2023-02-08T06:46:09.713Z,11.98
2023-02-08T06:47:16.357Z,10.95
2023-02-08T06:48:23.156Z,15.20
2023-02-08T06:49:42.402Z,10.70
2023-02-08T06:50:58.805Z,13.25
2023-02-08T06:52:19.498Z,12.98
2023-02-08T06:53:27.762Z,11.57
2023-02-08T06:54:36.210Z,12.40
2023-02-08T06:55:51.627Z,12.50
2023-02-08T06:57:18.556Z,13.48
2023-02-08T06:58:27.221Z,12.73
2023-02-08T06:59:38.181Z,11.05
2023-02-08T07:00:55.500Z,11.40
2023-02-08T07:02:23.526Z,12.43
2023-02-08T07:03:35.467Z,10.73
2023-02-08T07:04:49.637Z,14.30
2023-02-08T07:06:05.497Z,13.70
2023-02-08T07:07:19.982Z,12.90
2023-02-08T07:08:28.331Z,15.05
2023-02-08T07:09:47.133Z,11.27
2023-02-08T07:11:26.981Z,13.38
2023-02-08T07:12:41.499Z,13.13
2023-02-08T07:14:07.195Z,12.88
2023-02-08T07:15:42.658Z,13.02
2023-02-08T07:17:31.729Z,13.63
2023-02-08T07:19:26.439Z,12.98
2023-02-08T07:20:44.745Z,14.82
2023-02-08T07:22:08.256Z,13.65
2023-02-08T07:23:36.312Z,13.00
2023-02-08T07:24:48.409Z,14.25
2023-02-08T07:26:18.615Z,11.68
2023-02-08T07:27:25.695Z,16.42
2023-02-08T07:28:31.619Z,14.02
2023-02-08T07:29:36.655Z,12.77
2023-02-08T07:30:41.960Z,11.80
2023-02-08T07:31:46.590Z,15.60
2023-02-08T07:32:50.819Z,11.93
2023-02-08T07:33:55.428Z,12.57
2023-02-08T07:35:00.505Z,11.27
2023-02-08T07:36:14.964Z,14.88
2023-02-08T07:37:18.757Z,12.00
2023-02-08T07:38:22.586Z,14.75
2023-02-08T07:39:26.740Z,13.23
2023-02-08T07:40:32.427Z,12.30
2023-02-08T07:41:36.865Z,11.88
2023-02-08T07:42:42.006Z,12.73
2023-02-08T07:43:46.182Z,13.68
2023-02-08T07:44:50.889Z,15.05
2023-02-08T07:45:56.417Z,13.25
2023-02-08T07:47:02.237Z,11.85
2023-02-08T07:48:15.555Z,15.15
2023-02-08T07:49:19.612Z,11.98
2023-02-08T07:50:23.656Z,10.45
2023-02-08T07:51:29.344Z,11.70
2023-02-08T07:52:34.187Z,12.60
2023-02-08T07:53:38.296Z,9.55
2023-02-08T07:54:42.934Z,9.77
2023-02-08T07:55:47.386Z,9.70
2023-02-08T07:56:51.890Z,9.82
2023-02-08T07:57:57.866Z,12.77
2023-02-08T07:59:15.259Z,11.27
2023-02-08T08:00:20.207Z,10.57
2023-02-08T08:01:28.082Z,11.25
2023-02-08T08:02:34.321Z,11.25
2023-02-08T08:03:40.493Z,10.55
2023-02-08T08:04:45.855Z,9.18
2023-02-08T08:05:54.757Z,9.30
2023-02-08T08:07:08.630Z,7.50
2023-02-08T08:08:17.259Z,7.18
2023-02-08T08:09:22.667Z,8.20
2023-02-08T08:10:28.437Z,6.78
2023-02-08T08:11:33.127Z,7.70
2023-02-08T08:12:37.332Z,6.40
2023-02-08T08:13:41.931Z,8.65
2023-02-08T08:14:46.851Z,6.43
2023-02-08T08:15:51.931Z,6.43
2023-02-08T08:16:57.982Z,8.05
2023-02-08T08:18:02.958Z,7.97
2023-02-08T08:19:15.819Z,7.53
2023-02-08T08:20:21.117Z,6.80
2023-02-08T08:21:28.055Z,7.70
2023-02-08T08:22:32.462Z,5.90
2023-02-08T08:23:41.905Z,7.82
2023-02-08T08:24:51.172Z,7.38
2023-02-08T08:25:56.716Z,7.00
2023-02-08T08:27:04.750Z,8.23
2023-02-08T08:28:25.707Z,7.35
2023-02-08T08:29:35.537Z,6.53
2023-02-08T08:30:45.012Z,5.57
2023-02-08T08:31:55.369Z,5.50
2023-02-08T08:32:59.782Z,6.70
2023-02-08T08:34:05.373Z,7.32
2023-02-08T08:35:19.135Z,8.18
2023-02-08T08:36:24.685Z,7.53
2023-02-08T08:37:29.910Z,6.13
2023-02-08T08:38:34.313Z,6.45
2023-02-08T08:39:40.494Z,6.70
2023-02-08T08:40:48.741Z,7.38
2023-02-08T08:41:52.692Z,6.57
2023-02-08T08:42:58.203Z,7.50
2023-02-08T08:44:10.315Z,8.02
2023-02-08T08:45:15.479Z,7.38
2023-02-08T08:46:21.761Z,7.95
2023-02-08T08:47:26.143Z,8.63
2023-02-08T08:48:31.510Z,7.07
2023-02-08T08:49:36.597Z,6.03
2023-02-08T08:50:43.591Z,6.88
2023-02-08T08:51:48.282Z,6.30
2023-02-08T08:52:53.204Z,9.23
2023-02-08T08:54:00.941Z,6.78
2023-02-08T08:55:14.738Z,6.43
2023-02-08T08:56:19.556Z,6.10
2023-02-08T08:57:24.319Z,7.75
2023-02-08T08:58:30.261Z,5.22
2023-02-08T08:59:35.196Z,7.60
2023-02-08T09:00:43.106Z,8.43
2023-02-08T09:01:48.317Z,7.15
2023-02-08T09:02:54.152Z,6.05
2023-02-08T09:03:59.191Z,7.78
2023-02-08T09:05:06.548Z,7.38
2023-02-08T09:06:18.135Z,5.28
2023-02-08T09:07:26.950Z,7.43
2023-02-08T09:08:31.791Z,7.05
2023-02-08T09:09:36.690Z,7.90
2023-02-08T09:10:43.753Z,7.63
2023-02-08T09:11:51.115Z,7.30
2023-02-08T09:12:55.937Z,8.20
2023-02-08T09:14:08.644Z,6.53
2023-02-08T09:15:15.994Z,8.73
2023-02-08T09:16:21.622Z,7.20
2023-02-08T09:17:27.698Z,7.32
2023-02-08T09:18:32.810Z,6.13
2023-02-08T09:19:37.549Z,7.22
2023-02-08T09:20:42.497Z,6.32
2023-02-08T09:21:47.648Z,6.80
2023-02-08T09:22:53.957Z,6.97
2023-02-08T09:24:00.694Z,7.38
2023-02-08T09:25:10.546Z,8.23
2023-02-08T09:26:19.400Z,7.75
2023-02-08T09:27:24.020Z,6.97
2023-02-08T09:28:28.392Z,6.45
2023-02-08T09:29:37.059Z,5.85
2023-02-08T09:30:41.531Z,6.55
2023-02-08T09:31:49.710Z,8.52
2023-02-08T09:32:54.531Z,7.22
2023-02-08T09:34:01.553Z,8.57
2023-02-08T09:35:13.510Z,6.65
2023-02-08T09:36:18.403Z,7.05
2023-02-08T09:37:25.532Z,6.07
2023-02-08T09:38:30.294Z,5.85
2023-02-08T09:39:35.194Z,7.50
2023-02-08T09:40:58.744Z,5.95
2023-02-08T09:42:22.348Z,6.57
2023-02-08T09:44:04.247Z,4.88
2023-02-08T09:45:31.333Z,5.32
2023-02-08T09:46:41.978Z,4.47
2023-02-08T09:48:43.081Z,5.47
2023-02-08T09:50:18.932Z,5.07
2023-02-08T09:53:53.705Z,4.38
2023-02-08T09:55:24.092Z,5.60
2023-02-08T09:56:40.544Z,6.55
2023-02-08T09:57:47.603Z,5.35
2023-02-08T09:58:55.695Z,4.25
2023-02-08T10:00:14.080Z,4.72
2023-02-08T10:01:34.258Z,5.90
2023-02-08T10:02:44.581Z,6.82
2023-02-08T10:04:00.885Z,6.30
2023-02-08T10:05:14.145Z,4.72
2023-02-08T10:06:22.059Z,6.63
2023-02-08T10:07:28.928Z,3.75
2023-02-08T10:08:35.815Z,6.13
2023-02-08T10:09:40.663Z,5.10
2023-02-08T10:11:52.954Z,5.03
2023-02-08T10:14:14.619Z,4.20
2023-02-08T10:15:54.620Z,4.80
2023-02-08T10:17:36.445Z,5.88
2023-02-08T10:19:31.287Z,5.45
2023-02-08T10:21:10.913Z,6.22
2023-02-08T10:22:54.081Z,5.80
2023-02-08T10:24:26.465Z,5.82
2023-02-08T10:26:04.750Z,5.13
2023-02-08T10:27:44.783Z,5.78
2023-02-08T10:29:26.009Z,5.45
2023-02-08T10:30:55.520Z,4.18
2023-02-08T10:32:39.217Z,5.10
2023-02-08T10:33:58.438Z,4.85
2023-02-08T10:35:42.518Z,5.45
2023-02-08T10:36:47.697Z,4.90
2023-02-08T10:37:54.153Z,6.82
2023-02-08T10:39:03.049Z,4.53
2023-02-08T10:40:39.183Z,5.90
2023-02-08T10:41:46.544Z,5.07
2023-02-08T10:43:29.871Z,4.18
2023-02-08T10:45:01.045Z,5.35
2023-02-08T10:46:15.120Z,5.18
2023-02-08T10:47:42.484Z,5.78
2023-02-08T10:49:01.344Z,5.07
2023-02-08T10:50:43.318Z,5.65
2023-02-08T10:51:51.539Z,4.78
2023-02-08T10:53:07.163Z,4.43
2023-02-08T10:54:22.823Z,6.22
2023-02-08T10:55:36.165Z,7.13
2023-02-08T10:57:19.295Z,5.65
2023-02-08T10:58:29.857Z,3.80
2023-02-08T11:00:07.862Z,4.47
2023-02-08T11:01:24.934Z,4.20
2023-02-08T11:02:41.855Z,3.72
2023-02-08T11:04:32.067Z,5.32
2023-02-08T11:05:44.460Z,4.95
2023-02-08T11:06:55.211Z,6.20
2023-02-08T11:08:28.868Z,5.47
2023-02-08T11:09:48.476Z,5.05
2023-02-08T11:11:25.840Z,5.15
2023-02-08T11:12:47.769Z,4.47
2023-02-08T11:14:21.254Z,4.80
2023-02-08T11:15:53.414Z,6.18
2023-02-08T11:17:05.570Z,5.40
2023-02-08T11:18:33.388Z,4.78
2023-02-08T11:19:46.999Z,5.05
2023-02-08T11:21:01.908Z,4.97
2023-02-08T11:22:19.065Z,5.40
2023-02-08T11:23:43.187Z,5.68
2023-02-08T11:25:10.070Z,5.43
2023-02-08T11:26:41.421Z,5.50
2023-02-08T11:28:23.793Z,5.63
2023-02-08T11:29:40.824Z,6.10
2023-02-08T11:31:06.873Z,6.07
2023-02-08T11:32:20.944Z,6.18
2023-02-08T11:33:35.902Z,6.95
2023-02-08T11:34:43.769Z,6.85
2023-02-08T11:36:16.924Z,5.75
2023-02-08T11:37:32.204Z,5.95
2023-02-08T11:38:46.122Z,5.88
2023-02-08T11:40:00.673Z,5.68
2023-02-08T11:41:16.225Z,5.32
2023-02-08T11:42:38.454Z,5.82
2023-02-08T11:43:58.064Z,4.15
2023-02-08T11:45:12.995Z,5.57
2023-02-08T11:46:26.811Z,4.88
2023-02-08T11:47:35.633Z,4.75
2023-02-08T11:48:52.788Z,5.15
2023-02-08T11:50:07.138Z,4.82
2023-02-08T11:51:25.875Z,5.45
2023-02-08T11:52:45.895Z,5.50
2023-02-08T11:54:19.540Z,5.68
2023-02-08T11:55:45.435Z,4.20
2023-02-08T11:57:27.784Z,5.07
2023-02-08T11:58:36.878Z,4.40
2023-02-08T11:59:44.112Z,3.70
2023-02-08T12:01:22.307Z,5.32
2023-02-08T12:02:48.337Z,4.00
2023-02-08T12:03:59.200Z,6.20
2023-02-08T12:05:28.118Z,5.45
2023-02-08T12:07:32.979Z,4.88
2023-02-08T12:09:31.994Z,5.75
2023-02-08T12:11:18.993Z,5.45
2023-02-08T12:12:32.932Z,5.50
2023-02-08T12:14:45.897Z,5.13
2023-02-08T12:16:37.835Z,5.82
2023-02-08T12:18:19.806Z,4.88
2023-02-08T12:19:56.631Z,6.45
2023-02-08T12:22:10.913Z,3.67
2023-02-08T12:25:49.928Z,4.28
2023-02-08T12:27:41.124Z,3.50
2023-02-08T12:29:26.726Z,6.00
2023-02-08T12:31:36.164Z,4.03
2023-02-08T12:33:38.027Z,4.32
2023-02-08T12:35:57.425Z,5.07
2023-02-08T12:38:06.025Z,4.38
2023-02-08T12:40:37.709Z,4.35
2023-02-08T12:42:18.860Z,4.28
2023-02-08T12:43:59.519Z,4.85
2023-02-08T12:45:47.388Z,3.50
2023-02-08T12:47:37.137Z,4.00
2023-02-08T12:49:28.144Z,3.80
2023-02-08T12:51:17.395Z,3.25
2023-02-08T12:53:04.423Z,3.90
2023-02-08T12:54:51.676Z,6.05
2023-02-08T12:56:13.975Z,4.10
2023-02-08T12:57:23.703Z,5.60
2023-02-08T12:59:11.887Z,4.82
2023-02-08T13:00:44.938Z,5.05
2023-02-08T13:02:18.874Z,5.32
2023-02-08T13:04:03.083Z,5.63
2023-02-08T13:05:31.663Z,5.72
2023-02-08T13:07:02.947Z,5.25
2023-02-08T13:08:47.080Z,5.20
2023-02-08T13:10:16.525Z,4.63
2023-02-08T13:12:59.031Z,5.20
2023-02-08T13:14:56.900Z,5.68
2023-02-08T13:16:25.916Z,5.50
2023-02-08T13:17:59.335Z,4.93
2023-02-08T13:20:00.229Z,6.70
2023-02-08T13:21:23.702Z,5.90
2023-02-08T13:22:48.047Z,5.93
2023-02-08T13:24:00.748Z,6.65
2023-02-08T13:25:39.731Z,5.82
2023-02-08T13:26:57.873Z,6.22
2023-02-08T13:28:24.349Z,5.03
2023-02-08T13:29:31.720Z,4.97
2023-02-08T13:30:49.581Z,5.40
2023-02-08T13:32:37.983Z,5.90
2023-02-08T13:34:15.526Z,5.30
2023-02-08T13:35:47.627Z,5.05
2023-02-08T13:37:31.472Z,7.00
2023-02-08T13:38:37.467Z,4.82
2023-02-08T13:39:46.428Z,4.55
2023-02-08T13:41:20.938Z,5.93
2023-02-08T13:42:50.658Z,4.70
2023-02-08T13:44:01.675Z,5.30
2023-02-08T13:45:23.660Z,5.70
2023-02-08T13:46:39.264Z,5.80
2023-02-08T13:47:49.039Z,4.55
2023-02-08T13:49:12.867Z,4.05
2023-02-08T13:50:50.409Z,4.03
2023-02-08T13:52:01.768Z,4.38
2023-02-08T13:53:42.291Z,4.07
2023-02-08T13:55:30.796Z,4.30
2023-02-08T13:56:57.914Z,5.40
2023-02-08T13:59:01.314Z,3.80
2023-02-08T14:01:07.367Z,4.68
2023-02-08T14:02:27.232Z,4.47
2023-02-08T14:03:35.963Z,4.72
2023-02-08T14:05:24.593Z,4.57
2023-02-08T14:06:56.929Z,4.90
2023-02-08T14:08:30.718Z,4.20
2023-02-08T14:10:07.323Z,4.97
2023-02-08T14:12:28.822Z,3.78
2023-02-08T14:14:17.540Z,4.75
2023-02-08T14:15:31.706Z,4.32
2023-02-08T14:17:10.332Z,4.13
2023-02-08T14:19:16.572Z,3.58
2023-02-08T14:21:02.778Z,4.10
2023-02-08T14:23:26.564Z,4.55
2023-02-08T14:25:29.758Z,3.25
2023-02-08T14:27:03.785Z,3.97
2023-02-08T14:28:39.018Z,4.75
2023-02-08T14:29:45.953Z,4.15
2023-02-08T14:31:08.887Z,4.05
2023-02-08T14:33:37.482Z,3.60
2023-02-08T14:36:04.531Z,3.75
2023-02-08T14:37:35.963Z,4.32
2023-02-08T14:39:40.144Z,4.70
2023-02-08T14:41:04.065Z,4.97
2023-02-08T14:42:58.481Z,4.05
2023-02-08T14:44:39.817Z,4.38
2023-02-08T14:45:57.369Z,3.75
2023-02-08T14:47:28.577Z,4.07
2023-02-08T14:48:51.044Z,4.63
2023-02-08T14:50:56.296Z,4.18
2023-02-08T14:52:22.788Z,3.58
2023-02-08T14:53:47.349Z,3.55
2023-02-08T14:55:32.320Z,4.50
2023-02-08T14:57:11.135Z,5.20
2023-02-08T14:58:33.457Z,3.55
2023-02-08T14:59:55.824Z,3.28
2023-02-08T15:01:47.286Z,3.92
2023-02-08T15:02:56.322Z,4.93
2023-02-08T15:04:08.401Z,5.55
2023-02-08T15:06:20.837Z,4.55
2023-02-08T15:08:01.396Z,4.57
2023-02-08T15:09:40.548Z,4.10
2023-02-08T15:11:38.317Z,4.32
2023-02-08T15:13:39.719Z,3.30
2023-02-08T15:15:02.151Z,3.92
2023-02-08T15:16:20.223Z,4.90
2023-02-08T15:17:54.940Z,4.90
2023-02-08T15:19:55.230Z,4.38
2023-02-08T15:21:25.558Z,3.92
2023-02-08T15:22:42.332Z,4.20
2023-02-08T15:24:22.407Z,3.58
2023-02-08T15:25:40.333Z,3.70
2023-02-08T15:26:53.990Z,2.72
2023-02-08T15:28:26.226Z,3.78
2023-02-08T15:29:52.773Z,4.05
2023-02-08T15:31:34.770Z,4.20
2023-02-08T15:32:46.818Z,3.35
2023-02-08T15:33:55.035Z,3.33
2023-02-08T15:35:05.151Z,4.05
2023-02-08T15:37:15.572Z,3.85
2023-02-08T15:39:01.942Z,3.97
2023-02-08T15:40:26.434Z,3.92
2023-02-08T15:41:34.903Z,5.07
2023-02-08T15:42:49.562Z,3.47
2023-02-08T15:44:28.209Z,5.28
2023-02-08T15:45:32.758Z,4.55
2023-02-08T15:46:39.485Z,3.90
2023-02-08T15:47:45.625Z,3.22
2023-02-08T15:48:52.713Z,3.72
2023-02-08T15:50:02.653Z,3.50
2023-02-08T15:51:34.159Z,3.47
2023-02-08T15:52:58.216Z,3.28
2023-02-08T15:54:20.412Z,3.50
2023-02-08T15:56:24.045Z,3.33
2023-02-08T15:58:24.134Z,3.78
2023-02-08T16:00:04.391Z,4.00
2023-02-08T16:01:34.300Z,4.15
2023-02-08T16:03:24.636Z,3.33
2023-02-08T16:04:33.898Z,2.95
2023-02-08T16:05:47.088Z,3.40
2023-02-08T16:07:02.808Z,3.42
2023-02-08T16:08:45.354Z,3.40
2023-02-08T16:10:01.095Z,3.75
2023-02-08T16:11:28.772Z,3.85
2023-02-08T16:12:38.665Z,2.90
2023-02-08T16:13:56.387Z,4.78
2023-02-08T16:16:40.428Z,3.92
2023-02-08T16:18:01.229Z,3.78
2023-02-08T16:19:49.415Z,4.45
2023-02-08T16:22:24.951Z,4.05
2023-02-08T16:23:57.371Z,3.70
2023-02-08T16:25:45.647Z,4.20
2023-02-08T16:27:14.853Z,3.95
2023-02-08T16:28:34.183Z,3.85
2023-02-08T16:29:52.143Z,5.45
2023-02-08T16:31:03.585Z,3.83
2023-02-08T16:32:32.979Z,4.07
2023-02-08T16:33:50.645Z,5.00
2023-02-08T16:35:31.764Z,3.58
2023-02-08T16:37:21.299Z,4.32
2023-02-08T16:38:39.163Z,4.05
2023-02-08T16:40:09.149Z,4.28
2023-02-08T16:42:15.116Z,4.18
2023-02-08T16:43:40.664Z,3.28
2023-02-08T16:45:28.906Z,4.40
2023-02-08T16:46:49.556Z,4.28
2023-02-08T16:48:13.326Z,4.25
2023-02-08T16:49:42.328Z,4.05
2023-02-08T16:50:50.701Z,3.25
2023-02-08T16:52:05.939Z,4.22
2023-02-08T16:53:42.605Z,3.97
2023-02-08T16:54:51.195Z,3.97
2023-02-08T16:56:09.036Z,4.18
2023-02-08T16:57:18.904Z,5.10
2023-02-08T16:58:34.538Z,4.03
2023-02-08T17:00:02.281Z,5.32
2023-02-08T17:01:50.311Z,4.00
2023-02-08T17:03:19.562Z,4.20
2023-02-08T17:06:39.230Z,4.40
2023-02-08T17:07:52.315Z,4.47
2023-02-08T17:09:22.024Z,3.35
2023-02-08T17:10:34.012Z,4.07
2023-02-08T17:11:45.264Z,4.38
2023-02-08T17:13:06.746Z,4.32
2023-02-08T17:14:36.394Z,5.28
2023-02-08T17:15:45.760Z,5.10
2023-02-08T17:16:58.625Z,4.55
2023-02-08T17:18:09.687Z,5.15
2023-02-08T17:19:44.716Z,5.60
2023-02-08T17:22:43.097Z,5.00
2023-02-08T17:24:12.295Z,4.75
2023-02-08T17:25:43.607Z,4.90
2023-02-08T17:27:05.240Z,5.38
2023-02-08T17:28:24.654Z,4.68
2023-02-08T17:29:42.743Z,5.65
2023-02-08T17:32:30.866Z,4.93
2023-02-08T17:33:46.472Z,5.68
2023-02-08T17:35:14.091Z,5.57
2023-02-08T17:36:40.125Z,4.40
2023-02-08T17:37:53.677Z,4.35
2023-02-08T17:38:58.944Z,4.70
2023-02-08T17:40:03.291Z,5.30
2023-02-08T20:53:01.559Z,8.23
2023-02-08T20:54:17.665Z,9.93
2023-02-08T20:55:25.976Z,9.87
2023-02-08T20:56:39.744Z,9.23
2023-02-08T20:57:44.432Z,10.37
2023-02-08T20:58:50.054Z,11.38
2023-02-08T21:00:01.460Z,9.67
2023-02-08T21:01:15.734Z,9.23
2023-02-08T21:02:23.386Z,10.70
2023-02-08T21:03:32.794Z,11.17
2023-02-08T21:04:40.694Z,9.73
2023-02-08T21:05:49.790Z,13.20
2023-02-08T21:06:53.624Z,10.60
2023-02-08T21:08:01.727Z,11.17
2023-02-08T21:09:17.542Z,10.93
2023-02-08T21:10:22.803Z,11.05
2023-02-08T21:11:35.286Z,10.80
2023-02-08T21:12:40.675Z,9.70
2023-02-08T21:13:54.350Z,9.70
2023-02-08T21:15:04.787Z,9.85
2023-02-08T21:16:15.384Z,10.93